sensor_id;sensor_type;location;lat;lon;timestamp;P1;durP1;ratioP1;P2;durP2;ratioP2
50671;SDS011;46021;55.882;37.654;2022-08-03T00:00:53;12.25;;;7.43;;
50671;SDS011;46021;55.882;37.654;2022-08-03T00:03:19;15.80;;;8.23;;
50671;SDS011;46021;55.882;37.654;2022-08-03T00:05:46;14.32;;;7.45;;
50671;SDS011;46021;55.882;37.654;2022-08-03T00:08:12;15.00;;;7.05;;
50671;SDS011;46021;55.882;37.654;2022-08-03T00:10:39;17.80;;;7.47;;
50671;SDS011;46021;55.882;37.654;2022-08-03T00:13:06;14.07;;;7.55;;
50671;SDS011;46021;55.882;37.654;2022-08-03T00:15:32;17.50;;;8.98;;
50671;SDS011;46021;55.882;37.654;2022-08-03T00:17:59;21.20;;;7.97;;
50671;SDS011;46021;55.882;37.654;2022-08-03T00:20:26;19.20;;;7.28;;
50671;SDS011;46021;55.882;37.654;2022-08-03T00:22:52;17.33;;;8.38;;
50671;SDS011;46021;55.882;37.654;2022-08-03T00:25:19;14.95;;;6.90;;
50671;SDS011;46021;55.882;37.654;2022-08-03T00:27:46;17.00;;;7.30;;
50671;SDS011;46021;55.882;37.654;2022-08-03T00:30:13;13.35;;;7.65;;
50671;SDS011;46021;55.882;37.654;2022-08-03T00:32:40;16.27;;;8.32;;
50671;SDS011;46021;55.882;37.654;2022-08-03T00:35:06;18.95;;;9.27;;
50671;SDS011;46021;55.882;37.654;2022-08-03T00:37:34;14.77;;;7.88;;
50671;SDS011;46021;55.882;37.654;2022-08-03T00:40:00;15.32;;;7.93;;
50671;SDS011;46021;55.882;37.654;2022-08-03T00:42:28;12.35;;;7.43;;
50671;SDS011;46021;55.882;37.654;2022-08-03T00:44:55;15.98;;;7.78;;
50671;SDS011;46021;55.882;37.654;2022-08-03T00:47:22;12.52;;;7.90;;
50671;SDS011;46021;55.882;37.654;2022-08-03T00:49:48;15.25;;;8.00;;
50671;SDS011;46021;55.882;37.654;2022-08-03T00:52:15;11.27;;;7.57;;
50671;SDS011;46021;55.882;37.654;2022-08-03T00:54:41;13.88;;;7.90;;
50671;SDS011;46021;55.882;37.654;2022-08-03T00:57:08;13.60;;;8.02;;
50671;SDS011;46021;55.882;37.654;2022-08-03T00:59:35;14.05;;;8.18;;
50671;SDS011;46021;55.882;37.654;2022-08-03T01:02:02;12.57;;;7.80;;
50671;SDS011;46021;55.882;37.654;2022-08-03T01:04:32;15.48;;;7.57;;
50671;SDS011;46021;55.882;37.654;2022-08-03T01:07:01;13.93;;;7.43;;
50671;SDS011;46021;55.882;37.654;2022-08-03T01:09:34;11.18;;;8.30;;
50671;SDS011;46021;55.882;37.654;2022-08-03T01:12:07;14.98;;;8.27;;
50671;SDS011;46021;55.882;37.654;2022-08-03T01:14:40;12.38;;;8.15;;
50671;SDS011;46021;55.882;37.654;2022-08-03T01:17:12;14.48;;;8.45;;
50671;SDS011;46021;55.882;37.654;2022-08-03T01:19:45;13.50;;;8.07;;
50671;SDS011;46021;55.882;37.654;2022-08-03T01:22:29;13.73;;;7.72;;
50671;SDS011;46021;55.882;37.654;2022-08-03T01:25:37;11.93;;;8.48;;
50671;SDS011;46021;55.882;37.654;2022-08-03T01:28:26;16.75;;;7.90;;
50671;SDS011;46021;55.882;37.654;2022-08-03T01:31:05;17.48;;;8.75;;
50671;SDS011;46021;55.882;37.654;2022-08-03T01:33:34;15.00;;;8.75;;
50671;SDS011;46021;55.882;37.654;2022-08-03T01:36:04;21.08;;;9.13;;
50671;SDS011;46021;55.882;37.654;2022-08-03T01:38:34;16.98;;;8.45;;
50671;SDS011;46021;55.882;37.654;2022-08-03T01:41:07;13.32;;;8.13;;
50671;SDS011;46021;55.882;37.654;2022-08-03T01:43:38;16.30;;;8.80;;
50671;SDS011;46021;55.882;37.654;2022-08-03T01:46:08;14.60;;;8.95;;
50671;SDS011;46021;55.882;37.654;2022-08-03T01:48:36;14.77;;;8.30;;
50671;SDS011;46021;55.882;37.654;2022-08-03T01:51:05;14.10;;;7.80;;
50671;SDS011;46021;55.882;37.654;2022-08-03T01:53:33;16.70;;;7.97;;
50671;SDS011;46021;55.882;37.654;2022-08-03T01:56:02;14.93;;;8.25;;
50671;SDS011;46021;55.882;37.654;2022-08-03T01:58:31;20.25;;;8.63;;
50671;SDS011;46021;55.882;37.654;2022-08-03T02:01:00;12.82;;;8.35;;
50671;SDS011;46021;55.882;37.654;2022-08-03T02:03:30;17.30;;;9.18;;
50671;SDS011;46021;55.882;37.654;2022-08-03T02:05:59;18.20;;;8.50;;
50671;SDS011;46021;55.882;37.654;2022-08-03T02:08:26;16.45;;;8.63;;
50671;SDS011;46021;55.882;37.654;2022-08-03T02:10:56;13.13;;;8.68;;
50671;SDS011;46021;55.882;37.654;2022-08-03T02:13:24;14.52;;;8.15;;
50671;SDS011;46021;55.882;37.654;2022-08-03T02:15:51;12.80;;;8.05;;
50671;SDS011;46021;55.882;37.654;2022-08-03T02:18:19;22.65;;;9.27;;
50671;SDS011;46021;55.882;37.654;2022-08-03T02:20:47;15.52;;;9.00;;
50671;SDS011;46021;55.882;37.654;2022-08-03T02:23:15;15.18;;;8.95;;
50671;SDS011;46021;55.882;37.654;2022-08-03T02:25:43;16.23;;;9.10;;
50671;SDS011;46021;55.882;37.654;2022-08-03T02:28:15;17.15;;;9.10;;
50671;SDS011;46021;55.882;37.654;2022-08-03T02:30:44;21.10;;;9.82;;
50671;SDS011;46021;55.882;37.654;2022-08-03T02:33:16;18.35;;;9.40;;
50671;SDS011;46021;55.882;37.654;2022-08-03T02:35:44;20.10;;;9.55;;
50671;SDS011;46021;55.882;37.654;2022-08-03T02:38:14;14.27;;;8.82;;
50671;SDS011;46021;55.882;37.654;2022-08-03T02:40:44;19.42;;;8.63;;
50671;SDS011;46021;55.882;37.654;2022-08-03T02:43:17;15.23;;;8.45;;
50671;SDS011;46021;55.882;37.654;2022-08-03T02:45:47;16.88;;;8.65;;
50671;SDS011;46021;55.882;37.654;2022-08-03T02:48:16;24.85;;;9.45;;
50671;SDS011;46021;55.882;37.654;2022-08-03T02:50:47;21.45;;;9.18;;
50671;SDS011;46021;55.882;37.654;2022-08-03T02:53:16;13.45;;;8.90;;
50671;SDS011;46021;55.882;37.654;2022-08-03T02:55:45;16.13;;;8.85;;
50671;SDS011;46021;55.882;37.654;2022-08-03T03:00:39;15.43;;;9.35;;
50671;SDS011;46021;55.882;37.654;2022-08-03T03:03:10;14.55;;;9.35;;
50671;SDS011;46021;55.882;37.654;2022-08-03T03:08:06;14.85;;;8.25;;
50671;SDS011;46021;55.882;37.654;2022-08-03T03:12:59;40.50;;;25.00;;
50671;SDS011;46021;55.882;37.654;2022-08-03T03:15:27;31.55;;;12.13;;
50671;SDS011;46021;55.882;37.654;2022-08-03T03:17:56;18.58;;;10.13;;
50671;SDS011;46021;55.882;37.654;2022-08-03T03:20:24;16.08;;;9.13;;
50671;SDS011;46021;55.882;37.654;2022-08-03T03:22:52;21.45;;;8.48;;
50671;SDS011;46021;55.882;37.654;2022-08-03T03:25:21;12.80;;;8.75;;
50671;SDS011;46021;55.882;37.654;2022-08-03T03:27:49;12.20;;;8.80;;
50671;SDS011;46021;55.882;37.654;2022-08-03T03:30:16;14.57;;;9.10;;
50671;SDS011;46021;55.882;37.654;2022-08-03T03:32:42;14.88;;;7.70;;
50671;SDS011;46021;55.882;37.654;2022-08-03T03:35:09;19.50;;;8.23;;
50671;SDS011;46021;55.882;37.654;2022-08-03T03:37:38;14.43;;;8.25;;
50671;SDS011;46021;55.882;37.654;2022-08-03T03:40:05;17.75;;;8.30;;
50671;SDS011;46021;55.882;37.654;2022-08-03T03:42:34;14.63;;;7.97;;
50671;SDS011;46021;55.882;37.654;2022-08-03T03:45:02;15.32;;;8.05;;
50671;SDS011;46021;55.882;37.654;2022-08-03T03:47:30;26.77;;;9.40;;
50671;SDS011;46021;55.882;37.654;2022-08-03T03:49:58;19.95;;;8.57;;
50671;SDS011;46021;55.882;37.654;2022-08-03T03:52:26;14.65;;;7.63;;
50671;SDS011;46021;55.882;37.654;2022-08-03T03:54:53;13.73;;;7.75;;
50671;SDS011;46021;55.882;37.654;2022-08-03T03:57:20;14.65;;;7.88;;
50671;SDS011;46021;55.882;37.654;2022-08-03T03:59:47;13.23;;;7.13;;
50671;SDS011;46021;55.882;37.654;2022-08-03T04:02:13;24.08;;;8.43;;
50671;SDS011;46021;55.882;37.654;2022-08-03T04:04:40;13.23;;;7.53;;
50671;SDS011;46021;55.882;37.654;2022-08-03T04:07:25;17.65;;;8.18;;
50671;SDS011;46021;55.882;37.654;2022-08-03T04:10:11;15.63;;;7.30;;
50671;SDS011;46021;55.882;37.654;2022-08-03T04:12:59;16.33;;;8.60;;
50671;SDS011;46021;55.882;37.654;2022-08-03T04:15:28;15.38;;;8.10;;
50671;SDS011;46021;55.882;37.654;2022-08-03T04:17:58;10.23;;;7.40;;
50671;SDS011;46021;55.882;37.654;2022-08-03T04:20:27;17.23;;;7.75;;
50671;SDS011;46021;55.882;37.654;2022-08-03T04:22:55;15.55;;;7.68;;
50671;SDS011;46021;55.882;37.654;2022-08-03T04:25:24;14.15;;;7.13;;
50671;SDS011;46021;55.882;37.654;2022-08-03T04:27:55;14.23;;;6.93;;
50671;SDS011;46021;55.882;37.654;2022-08-03T04:30:24;14.00;;;7.28;;
50671;SDS011;46021;55.882;37.654;2022-08-03T04:32:53;11.40;;;6.60;;
50671;SDS011;46021;55.882;37.654;2022-08-03T04:35:22;12.18;;;6.80;;
50671;SDS011;46021;55.882;37.654;2022-08-03T04:37:50;10.88;;;6.47;;
50671;SDS011;46021;55.882;37.654;2022-08-03T04:40:18;11.70;;;6.45;;
50671;SDS011;46021;55.882;37.654;2022-08-03T04:42:48;10.68;;;7.05;;
50671;SDS011;46021;55.882;37.654;2022-08-03T04:45:18;12.70;;;6.63;;
50671;SDS011;46021;55.882;37.654;2022-08-03T04:47:46;9.02;;;5.78;;
50671;SDS011;46021;55.882;37.654;2022-08-03T04:50:14;13.80;;;6.68;;
50671;SDS011;46021;55.882;37.654;2022-08-03T04:52:43;17.48;;;6.60;;
50671;SDS011;46021;55.882;37.654;2022-08-03T04:55:09;12.18;;;6.47;;
50671;SDS011;46021;55.882;37.654;2022-08-03T04:57:36;11.13;;;5.93;;
50671;SDS011;46021;55.882;37.654;2022-08-03T05:00:03;14.57;;;5.78;;
50671;SDS011;46021;55.882;37.654;2022-08-03T05:02:32;8.68;;;5.90;;
50671;SDS011;46021;55.882;37.654;2022-08-03T05:04:59;14.55;;;6.00;;
50671;SDS011;46021;55.882;37.654;2022-08-03T05:07:26;16.20;;;6.50;;
50671;SDS011;46021;55.882;37.654;2022-08-03T05:09:53;12.02;;;6.40;;
50671;SDS011;46021;55.882;37.654;2022-08-03T05:12:19;13.85;;;5.78;;
50671;SDS011;46021;55.882;37.654;2022-08-03T05:14:46;8.85;;;5.97;;
50671;SDS011;46021;55.882;37.654;2022-08-03T05:17:12;10.13;;;6.10;;
50671;SDS011;46021;55.882;37.654;2022-08-03T05:19:39;8.20;;;5.55;;
50671;SDS011;46021;55.882;37.654;2022-08-03T05:22:06;13.40;;;5.95;;
50671;SDS011;46021;55.882;37.654;2022-08-03T05:24:33;8.93;;;5.45;;
50671;SDS011;46021;55.882;37.654;2022-08-03T05:26:59;12.95;;;5.70;;
50671;SDS011;46021;55.882;37.654;2022-08-03T05:29:26;9.00;;;5.30;;
50671;SDS011;46021;55.882;37.654;2022-08-03T05:31:53;9.60;;;5.20;;
50671;SDS011;46021;55.882;37.654;2022-08-03T05:34:19;7.68;;;5.18;;
50671;SDS011;46021;55.882;37.654;2022-08-03T05:36:46;12.80;;;5.55;;
50671;SDS011;46021;55.882;37.654;2022-08-03T05:39:12;17.52;;;5.53;;
50671;SDS011;46021;55.882;37.654;2022-08-03T05:41:39;10.23;;;4.88;;
50671;SDS011;46021;55.882;37.654;2022-08-03T05:44:06;11.27;;;4.65;;
50671;SDS011;46021;55.882;37.654;2022-08-03T05:46:32;6.93;;;4.95;;
50671;SDS011;46021;55.882;37.654;2022-08-03T05:48:59;10.70;;;4.60;;
50671;SDS011;46021;55.882;37.654;2022-08-03T05:51:25;9.70;;;4.65;;
50671;SDS011;46021;55.882;37.654;2022-08-03T05:53:54;9.45;;;4.93;;
50671;SDS011;46021;55.882;37.654;2022-08-03T05:56:21;12.80;;;4.95;;
50671;SDS011;46021;55.882;37.654;2022-08-03T05:58:49;9.57;;;4.50;;
50671;SDS011;46021;55.882;37.654;2022-08-03T06:01:17;12.98;;;4.35;;
50671;SDS011;46021;55.882;37.654;2022-08-03T06:03:46;15.32;;;4.50;;
50671;SDS011;46021;55.882;37.654;2022-08-03T06:06:16;7.00;;;4.05;;
50671;SDS011;46021;55.882;37.654;2022-08-03T06:08:44;11.75;;;6.03;;
50671;SDS011;46021;55.882;37.654;2022-08-03T06:11:13;16.67;;;9.63;;
50671;SDS011;46021;55.882;37.654;2022-08-03T06:13:41;16.70;;;6.25;;
50671;SDS011;46021;55.882;37.654;2022-08-03T06:16:08;7.97;;;4.80;;
50671;SDS011;46021;55.882;37.654;2022-08-03T06:18:35;17.27;;;6.53;;
50671;SDS011;46021;55.882;37.654;2022-08-03T06:21:02;15.73;;;9.05;;
50671;SDS011;46021;55.882;37.654;2022-08-03T06:23:29;7.72;;;4.55;;
50671;SDS011;46021;55.882;37.654;2022-08-03T06:25:56;8.43;;;4.97;;
50671;SDS011;46021;55.882;37.654;2022-08-03T06:28:23;13.85;;;7.57;;
50671;SDS011;46021;55.882;37.654;2022-08-03T06:30:50;14.77;;;5.68;;
50671;SDS011;46021;55.882;37.654;2022-08-03T06:33:17;18.45;;;6.72;;
50671;SDS011;46021;55.882;37.654;2022-08-03T06:35:44;9.75;;;4.65;;
50671;SDS011;46021;55.882;37.654;2022-08-03T06:38:10;10.70;;;5.22;;
50671;SDS011;46021;55.882;37.654;2022-08-03T06:40:37;15.85;;;5.63;;
50671;SDS011;46021;55.882;37.654;2022-08-03T06:45:31;9.52;;;5.43;;
50671;SDS011;46021;55.882;37.654;2022-08-03T06:47:59;9.77;;;5.07;;
50671;SDS011;46021;55.882;37.654;2022-08-03T06:50:27;13.73;;;5.25;;
50671;SDS011;46021;55.882;37.654;2022-08-03T06:52:54;8.23;;;4.60;;
50671;SDS011;46021;55.882;37.654;2022-08-03T06:55:20;12.18;;;5.05;;
50671;SDS011;46021;55.882;37.654;2022-08-03T06:57:47;8.93;;;4.97;;
50671;SDS011;46021;55.882;37.654;2022-08-03T07:00:14;7.28;;;4.32;;
50671;SDS011;46021;55.882;37.654;2022-08-03T07:02:41;10.23;;;4.97;;
50671;SDS011;46021;55.882;37.654;2022-08-03T07:05:09;7.85;;;4.43;;
50671;SDS011;46021;55.882;37.654;2022-08-03T07:07:37;7.70;;;3.95;;
50671;SDS011;46021;55.882;37.654;2022-08-03T07:10:05;7.65;;;4.00;;
50671;SDS011;46021;55.882;37.654;2022-08-03T07:12:33;28.05;;;11.48;;
50671;SDS011;46021;55.882;37.654;2022-08-03T07:15:00;12.13;;;4.60;;
50671;SDS011;46021;55.882;37.654;2022-08-03T07:17:31;6.03;;;3.70;;
50671;SDS011;46021;55.882;37.654;2022-08-03T07:19:59;5.47;;;3.72;;
50671;SDS011;46021;55.882;37.654;2022-08-03T07:22:28;5.32;;;3.30;;
50671;SDS011;46021;55.882;37.654;2022-08-03T07:24:56;8.32;;;2.90;;
50671;SDS011;46021;55.882;37.654;2022-08-03T07:27:22;4.18;;;3.15;;
50671;SDS011;46021;55.882;37.654;2022-08-03T07:29:51;4.75;;;3.53;;
50671;SDS011;46021;55.882;37.654;2022-08-03T07:32:17;4.90;;;3.15;;
50671;SDS011;46021;55.882;37.654;2022-08-03T07:34:44;4.00;;;2.90;;
50671;SDS011;46021;55.882;37.654;2022-08-03T07:37:10;7.13;;;3.00;;
50671;SDS011;46021;55.882;37.654;2022-08-03T07:39:37;5.43;;;3.40;;
50671;SDS011;46021;55.882;37.654;2022-08-03T07:42:04;7.22;;;2.97;;
50671;SDS011;46021;55.882;37.654;2022-08-03T07:44:31;7.32;;;2.65;;
50671;SDS011;46021;55.882;37.654;2022-08-03T07:46:58;5.45;;;2.55;;
50671;SDS011;46021;55.882;37.654;2022-08-03T07:49:25;9.30;;;3.40;;
50671;SDS011;46021;55.882;37.654;2022-08-03T07:51:51;7.55;;;4.78;;
50671;SDS011;46021;55.882;37.654;2022-08-03T07:54:32;11.07;;;3.08;;
50671;SDS011;46021;55.882;37.654;2022-08-03T07:56:59;5.55;;;3.25;;
50671;SDS011;46021;55.882;37.654;2022-08-03T07:59:26;4.28;;;3.15;;
50671;SDS011;46021;55.882;37.654;2022-08-03T08:04:20;4.55;;;2.72;;
50671;SDS011;46021;55.882;37.654;2022-08-03T08:06:48;6.45;;;2.92;;
50671;SDS011;46021;55.882;37.654;2022-08-03T08:09:14;5.85;;;3.00;;
50671;SDS011;46021;55.882;37.654;2022-08-03T08:11:41;6.00;;;2.70;;
50671;SDS011;46021;55.882;37.654;2022-08-03T08:14:07;8.00;;;3.53;;
50671;SDS011;46021;55.882;37.654;2022-08-03T08:16:34;6.65;;;3.05;;
50671;SDS011;46021;55.882;37.654;2022-08-03T08:21:27;7.15;;;4.35;;
50671;SDS011;46021;55.882;37.654;2022-08-03T08:23:54;4.28;;;3.22;;
50671;SDS011;46021;55.882;37.654;2022-08-03T08:26:21;5.32;;;2.67;;
50671;SDS011;46021;55.882;37.654;2022-08-03T08:28:47;3.90;;;2.70;;
50671;SDS011;46021;55.882;37.654;2022-08-03T08:33:41;5.53;;;3.00;;
50671;SDS011;46021;55.882;37.654;2022-08-03T08:36:08;4.43;;;2.95;;
50671;SDS011;46021;55.882;37.654;2022-08-03T08:38:35;5.40;;;2.58;;
50671;SDS011;46021;55.882;37.654;2022-08-03T08:41:01;7.70;;;3.20;;
50671;SDS011;46021;55.882;37.654;2022-08-03T08:43:31;6.13;;;2.85;;
50671;SDS011;46021;55.882;37.654;2022-08-03T08:48:24;7.25;;;3.10;;
50671;SDS011;46021;55.882;37.654;2022-08-03T08:50:53;6.97;;;2.90;;
50671;SDS011;46021;55.882;37.654;2022-08-03T08:53:21;4.30;;;2.95;;
50671;SDS011;46021;55.882;37.654;2022-08-03T08:55:50;6.22;;;3.42;;
50671;SDS011;46021;55.882;37.654;2022-08-03T08:58:18;9.02;;;5.40;;
50671;SDS011;46021;55.882;37.654;2022-08-03T09:00:47;13.50;;;6.57;;
50671;SDS011;46021;55.882;37.654;2022-08-03T09:03:13;9.73;;;4.40;;
50671;SDS011;46021;55.882;37.654;2022-08-03T09:05:42;10.32;;;6.80;;
50671;SDS011;46021;55.882;37.654;2022-08-03T09:08:10;7.72;;;4.35;;
50671;SDS011;46021;55.882;37.654;2022-08-03T09:10:37;9.50;;;4.85;;
50671;SDS011;46021;55.882;37.654;2022-08-03T09:13:04;5.50;;;3.22;;
50671;SDS011;46021;55.882;37.654;2022-08-03T09:15:33;12.45;;;5.45;;
50671;SDS011;46021;55.882;37.654;2022-08-03T09:18:00;6.95;;;4.85;;
50671;SDS011;46021;55.882;37.654;2022-08-03T09:20:30;9.82;;;2.97;;
50671;SDS011;46021;55.882;37.654;2022-08-03T09:22:59;6.97;;;3.60;;
50671;SDS011;46021;55.882;37.654;2022-08-03T09:25:30;4.85;;;3.00;;
50671;SDS011;46021;55.882;37.654;2022-08-03T09:28:04;5.82;;;2.78;;
50671;SDS011;46021;55.882;37.654;2022-08-03T09:30:34;7.93;;;3.30;;
50671;SDS011;46021;55.882;37.654;2022-08-03T09:33:15;4.47;;;2.70;;
50671;SDS011;46021;55.882;37.654;2022-08-03T09:35:43;4.45;;;3.00;;
50671;SDS011;46021;55.882;37.654;2022-08-03T09:38:12;10.35;;;3.15;;
50671;SDS011;46021;55.882;37.654;2022-08-03T09:40:40;3.38;;;2.45;;
50671;SDS011;46021;55.882;37.654;2022-08-03T09:43:08;3.72;;;2.38;;
50671;SDS011;46021;55.882;37.654;2022-08-03T09:45:35;4.45;;;2.40;;
50671;SDS011;46021;55.882;37.654;2022-08-03T09:50:51;5.53;;;2.35;;
50671;SDS011;46021;55.882;37.654;2022-08-03T09:53:19;8.80;;;3.28;;
50671;SDS011;46021;55.882;37.654;2022-08-03T09:55:53;7.40;;;2.40;;
50671;SDS011;46021;55.882;37.654;2022-08-03T09:58:21;6.30;;;2.50;;
50671;SDS011;46021;55.882;37.654;2022-08-03T10:00:52;6.85;;;2.70;;
50671;SDS011;46021;55.882;37.654;2022-08-03T10:03:23;12.23;;;2.60;;
50671;SDS011;46021;55.882;37.654;2022-08-03T10:05:51;3.03;;;2.35;;
50671;SDS011;46021;55.882;37.654;2022-08-03T10:08:18;5.53;;;2.70;;
50671;SDS011;46021;55.882;37.654;2022-08-03T10:10:46;4.78;;;2.95;;
50671;SDS011;46021;55.882;37.654;2022-08-03T10:13:15;5.40;;;2.55;;
50671;SDS011;46021;55.882;37.654;2022-08-03T10:15:43;6.07;;;2.58;;
50671;SDS011;46021;55.882;37.654;2022-08-03T10:18:10;7.45;;;2.53;;
50671;SDS011;46021;55.882;37.654;2022-08-03T10:20:37;4.65;;;3.00;;
50671;SDS011;46021;55.882;37.654;2022-08-03T10:23:08;6.10;;;2.70;;
50671;SDS011;46021;55.882;37.654;2022-08-03T10:25:37;6.10;;;2.80;;
50671;SDS011;46021;55.882;37.654;2022-08-03T10:28:05;5.80;;;2.67;;
50671;SDS011;46021;55.882;37.654;2022-08-03T10:30:38;5.50;;;2.67;;
50671;SDS011;46021;55.882;37.654;2022-08-03T10:33:07;9.25;;;2.65;;
50671;SDS011;46021;55.882;37.654;2022-08-03T10:35:39;5.15;;;3.00;;
50671;SDS011;46021;55.882;37.654;2022-08-03T10:38:09;5.22;;;2.80;;
50671;SDS011;46021;55.882;37.654;2022-08-03T10:40:41;4.45;;;2.60;;
50671;SDS011;46021;55.882;37.654;2022-08-03T10:43:10;5.60;;;2.70;;
50671;SDS011;46021;55.882;37.654;2022-08-03T10:45:44;3.55;;;2.40;;
50671;SDS011;46021;55.882;37.654;2022-08-03T10:48:13;15.40;;;3.38;;
50671;SDS011;46021;55.882;37.654;2022-08-03T10:50:41;6.50;;;4.13;;
50671;SDS011;46021;55.882;37.654;2022-08-03T10:53:08;5.55;;;2.75;;
50671;SDS011;46021;55.882;37.654;2022-08-03T10:55:35;8.20;;;2.90;;
50671;SDS011;46021;55.882;37.654;2022-08-03T11:01:16;5.25;;;2.67;;
50671;SDS011;46021;55.882;37.654;2022-08-03T11:06:42;3.65;;;2.47;;
50671;SDS011;46021;55.882;37.654;2022-08-03T11:09:13;2.70;;;2.10;;
50671;SDS011;46021;55.882;37.654;2022-08-03T11:11:42;6.10;;;2.60;;
50671;SDS011;46021;55.882;37.654;2022-08-03T11:14:11;4.00;;;2.65;;
50671;SDS011;46021;55.882;37.654;2022-08-03T11:16:40;4.43;;;2.70;;
50671;SDS011;46021;55.882;37.654;2022-08-03T11:19:09;4.35;;;2.80;;
50671;SDS011;46021;55.882;37.654;2022-08-03T11:21:53;17.70;;;3.20;;
50671;SDS011;46021;55.882;37.654;2022-08-03T11:27:22;4.22;;;2.35;;
50671;SDS011;46021;55.882;37.654;2022-08-03T11:29:53;3.65;;;2.55;;
50671;SDS011;46021;55.882;37.654;2022-08-03T11:35:22;5.28;;;3.15;;
50671;SDS011;46021;55.882;37.654;2022-08-03T11:40:44;6.68;;;3.60;;
50671;SDS011;46021;55.882;37.654;2022-08-03T11:46:10;8.57;;;4.57;;
50671;SDS011;46021;55.882;37.654;2022-08-03T11:48:42;4.13;;;2.88;;
50671;SDS011;46021;55.882;37.654;2022-08-03T11:51:18;7.30;;;3.60;;
50671;SDS011;46021;55.882;37.654;2022-08-03T11:53:46;8.13;;;3.75;;
50671;SDS011;46021;55.882;37.654;2022-08-03T11:56:17;9.23;;;4.13;;
50671;SDS011;46021;55.882;37.654;2022-08-03T11:58:47;9.15;;;4.75;;
50671;SDS011;46021;55.882;37.654;2022-08-03T12:01:15;6.55;;;2.95;;
50671;SDS011;46021;55.882;37.654;2022-08-03T12:03:41;9.82;;;3.53;;
50671;SDS011;46021;55.882;37.654;2022-08-03T12:06:10;14.25;;;7.60;;
50671;SDS011;46021;55.882;37.654;2022-08-03T12:08:38;9.15;;;3.00;;
50671;SDS011;46021;55.882;37.654;2022-08-03T12:11:07;8.45;;;4.38;;
50671;SDS011;46021;55.882;37.654;2022-08-03T12:13:35;5.85;;;2.88;;
50671;SDS011;46021;55.882;37.654;2022-08-03T12:16:06;5.80;;;3.13;;
50671;SDS011;46021;55.882;37.654;2022-08-03T12:18:34;6.75;;;3.50;;
50671;SDS011;46021;55.882;37.654;2022-08-03T12:21:04;5.97;;;2.80;;
50671;SDS011;46021;55.882;37.654;2022-08-03T12:23:32;7.13;;;3.22;;
50671;SDS011;46021;55.882;37.654;2022-08-03T12:26:01;9.50;;;3.10;;
50671;SDS011;46021;55.882;37.654;2022-08-03T12:28:28;4.85;;;2.60;;
50671;SDS011;46021;55.882;37.654;2022-08-03T12:30:55;4.30;;;2.80;;
50671;SDS011;46021;55.882;37.654;2022-08-03T12:33:25;6.57;;;3.60;;
50671;SDS011;46021;55.882;37.654;2022-08-03T12:36:03;6.97;;;4.22;;
50671;SDS011;46021;55.882;37.654;2022-08-03T12:38:32;5.40;;;2.95;;
50671;SDS011;46021;55.882;37.654;2022-08-03T12:41:02;12.00;;;4.20;;
50671;SDS011;46021;55.882;37.654;2022-08-03T12:43:30;11.18;;;3.25;;
50671;SDS011;46021;55.882;37.654;2022-08-03T12:46:10;7.20;;;2.85;;
50671;SDS011;46021;55.882;37.654;2022-08-03T12:51:33;4.53;;;2.60;;
50671;SDS011;46021;55.882;37.654;2022-08-03T12:54:02;3.38;;;2.83;;
50671;SDS011;46021;55.882;37.654;2022-08-03T12:56:30;7.50;;;2.70;;
50671;SDS011;46021;55.882;37.654;2022-08-03T12:58:56;17.08;;;3.15;;
50671;SDS011;46021;55.882;37.654;2022-08-03T13:01:23;10.45;;;3.28;;
50671;SDS011;46021;55.882;37.654;2022-08-03T13:03:52;9.98;;;3.25;;
50671;SDS011;46021;55.882;37.654;2022-08-03T13:06:19;9.70;;;3.58;;
50671;SDS011;46021;55.882;37.654;2022-08-03T13:08:47;12.48;;;2.80;;
50671;SDS011;46021;55.882;37.654;2022-08-03T13:11:19;5.10;;;3.03;;
50671;SDS011;46021;55.882;37.654;2022-08-03T13:13:47;6.95;;;3.20;;
50671;SDS011;46021;55.882;37.654;2022-08-03T13:16:14;5.82;;;3.05;;
50671;SDS011;46021;55.882;37.654;2022-08-03T13:18:41;4.55;;;3.05;;
50671;SDS011;46021;55.882;37.654;2022-08-03T13:21:11;5.32;;;2.90;;
50671;SDS011;46021;55.882;37.654;2022-08-03T13:23:38;6.22;;;3.10;;
50671;SDS011;46021;55.882;37.654;2022-08-03T13:26:05;4.18;;;2.60;;
50671;SDS011;46021;55.882;37.654;2022-08-03T13:28:32;6.90;;;4.88;;
50671;SDS011;46021;55.882;37.654;2022-08-03T13:30:59;5.80;;;3.78;;
50671;SDS011;46021;55.882;37.654;2022-08-03T13:33:26;4.95;;;3.28;;
50671;SDS011;46021;55.882;37.654;2022-08-03T13:35:52;4.70;;;3.42;;
50671;SDS011;46021;55.882;37.654;2022-08-03T13:38:19;7.07;;;5.28;;
50671;SDS011;46021;55.882;37.654;2022-08-03T13:40:46;7.05;;;4.97;;
50671;SDS011;46021;55.882;37.654;2022-08-03T13:43:13;6.97;;;4.72;;
50671;SDS011;46021;55.882;37.654;2022-08-03T13:45:39;9.95;;;4.18;;
50671;SDS011;46021;55.882;37.654;2022-08-03T13:48:06;5.90;;;4.03;;
50671;SDS011;46021;55.882;37.654;2022-08-03T13:50:33;8.38;;;4.30;;
50671;SDS011;46021;55.882;37.654;2022-08-03T13:52:59;7.80;;;3.28;;
50671;SDS011;46021;55.882;37.654;2022-08-03T13:55:26;6.13;;;3.78;;
50671;SDS011;46021;55.882;37.654;2022-08-03T13:57:53;7.13;;;4.22;;
50671;SDS011;46021;55.882;37.654;2022-08-03T14:00:19;4.88;;;3.78;;
50671;SDS011;46021;55.882;37.654;2022-08-03T14:02:50;8.75;;;3.80;;
50671;SDS011;46021;55.882;37.654;2022-08-03T14:05:17;12.35;;;6.97;;
50671;SDS011;46021;55.882;37.654;2022-08-03T14:07:44;14.95;;;10.05;;
50671;SDS011;46021;55.882;37.654;2022-08-03T14:12:38;10.57;;;4.78;;
50671;SDS011;46021;55.882;37.654;2022-08-03T14:15:04;10.02;;;3.50;;
50671;SDS011;46021;55.882;37.654;2022-08-03T14:17:34;6.18;;;3.63;;
50671;SDS011;46021;55.882;37.654;2022-08-03T14:20:01;5.28;;;3.20;;
50671;SDS011;46021;55.882;37.654;2022-08-03T14:22:30;13.65;;;6.43;;
50671;SDS011;46021;55.882;37.654;2022-08-03T14:24:56;6.80;;;5.03;;
50671;SDS011;46021;55.882;37.654;2022-08-03T14:27:23;7.10;;;3.67;;
50671;SDS011;46021;55.882;37.654;2022-08-03T14:29:49;8.90;;;5.68;;
50671;SDS011;46021;55.882;37.654;2022-08-03T14:32:16;5.75;;;3.33;;
50671;SDS011;46021;55.882;37.654;2022-08-03T14:34:42;7.22;;;4.22;;
50671;SDS011;46021;55.882;37.654;2022-08-03T14:37:09;6.75;;;3.50;;
50671;SDS011;46021;55.882;37.654;2022-08-03T14:39:36;5.88;;;3.92;;
50671;SDS011;46021;55.882;37.654;2022-08-03T14:42:03;10.82;;;4.03;;
50671;SDS011;46021;55.882;37.654;2022-08-03T14:44:30;12.45;;;4.65;;
50671;SDS011;46021;55.882;37.654;2022-08-03T14:46:57;5.78;;;3.55;;
50671;SDS011;46021;55.882;37.654;2022-08-03T14:49:23;4.47;;;3.40;;
50671;SDS011;46021;55.882;37.654;2022-08-03T14:54:17;5.93;;;3.58;;
50671;SDS011;46021;55.882;37.654;2022-08-03T14:56:44;4.65;;;3.15;;
50671;SDS011;46021;55.882;37.654;2022-08-03T14:59:11;5.93;;;3.85;;
50671;SDS011;46021;55.882;37.654;2022-08-03T15:01:37;6.07;;;3.50;;
50671;SDS011;46021;55.882;37.654;2022-08-03T15:04:04;8.32;;;3.65;;
50671;SDS011;46021;55.882;37.654;2022-08-03T15:06:30;8.63;;;3.60;;
50671;SDS011;46021;55.882;37.654;2022-08-03T15:08:57;4.40;;;3.22;;
50671;SDS011;46021;55.882;37.654;2022-08-03T15:11:23;3.92;;;2.80;;
50671;SDS011;46021;55.882;37.654;2022-08-03T15:13:51;4.95;;;3.17;;
50671;SDS011;46021;55.882;37.654;2022-08-03T15:16:17;7.75;;;3.10;;
50671;SDS011;46021;55.882;37.654;2022-08-03T15:18:44;5.22;;;3.15;;
50671;SDS011;46021;55.882;37.654;2022-08-03T15:21:10;4.65;;;3.00;;
50671;SDS011;46021;55.882;37.654;2022-08-03T15:23:37;11.25;;;3.92;;